createdAt,value
2019-05-29T00:02:01.749Z,101472.98
2019-05-29T00:04:31.460Z,101473.87
2019-05-29T00:07:01.164Z,101475.97
2019-05-29T00:09:30.825Z,101476.22
2019-05-29T00:12:00.497Z,101482.92
2019-05-29T00:14:30.231Z,101481.92
2019-05-29T00:17:00.074Z,101482.17
2019-05-29T00:19:29.792Z,101489.07
2019-05-29T00:21:59.525Z,101491.77
2019-05-29T00:24:29.325Z,101496.64
2019-05-29T00:26:59.133Z,101493.58
2019-05-29T00:29:28.927Z,101501.13
2019-05-29T00:31:58.721Z,101496.77
2019-05-29T00:34:28.535Z,101503.77
2019-05-29T00:36:58.309Z,101505.50
2019-05-29T00:39:28.086Z,101505.30
2019-05-29T00:41:57.808Z,101506.47
2019-05-29T00:44:34.271Z,101511.52
2019-05-29T00:46:59.132Z,101509.88
2019-05-29T00:49:28.992Z,101516.22
2019-05-29T00:51:58.891Z,101516.81
2019-05-29T00:54:28.603Z,101519.38
2019-05-29T00:56:58.384Z,101522.27
2019-05-29T00:59:28.212Z,101521.80
2019-05-29T01:01:57.974Z,101524.02
2019-05-29T01:04:27.726Z,101528.74
2019-05-29T01:06:57.537Z,101538.72
2019-05-29T01:09:27.274Z,101536.30
2019-05-29T01:11:57.062Z,101538.68
2019-05-29T01:14:26.793Z,101539.81
2019-05-29T01:16:56.520Z,101544.80
2019-05-29T01:19:26.409Z,101546.09
2019-05-29T01:21:57.151Z,101547.17
2019-05-29T01:24:27.460Z,101542.59
2019-05-29T01:26:57.284Z,101553.91
2019-05-29T01:29:27.100Z,101553.02
2019-05-29T01:31:56.854Z,101559.75
2019-05-29T01:34:26.658Z,101558.05
2019-05-29T01:36:56.415Z,101566.07
2019-05-29T01:39:26.152Z,101569.28
2019-05-29T01:41:55.995Z,101570.47
2019-05-29T01:44:25.738Z,101568.03
2019-05-29T01:46:55.487Z,101571.67
2019-05-29T01:49:25.244Z,101574.05
2019-05-29T01:51:54.979Z,101575.93
2019-05-29T01:54:24.713Z,101578.17
2019-05-29T01:56:54.532Z,101586.78
2019-05-29T01:59:24.270Z,101589.94
2019-05-29T02:01:54.081Z,101588.70
2019-05-29T02:04:24.241Z,101593.65
2019-05-29T02:06:54.091Z,101590.14
2019-05-29T02:09:24.276Z,101586.42
2019-05-29T02:11:54.210Z,101584.34
2019-05-29T02:14:24.893Z,101591.69
2019-05-29T02:16:55.098Z,101595.57
2019-05-29T02:19:25.998Z,101598.96
2019-05-29T02:21:55.768Z,101598.67
2019-05-29T02:24:25.694Z,101602.50
2019-05-29T02:26:55.436Z,101601.48
2019-05-29T02:29:25.262Z,101605.88
2019-05-29T02:31:54.978Z,101605.12
2019-05-29T02:34:26.881Z,101609.69
2019-05-29T02:36:56.330Z,101619.04
2019-05-29T02:39:27.336Z,101615.48
2019-05-29T02:41:57.751Z,101617.94
2019-05-29T02:44:28.227Z,101622.92
2019-05-29T02:46:59.320Z,101623.69
2019-05-29T02:49:30.359Z,101629.01
2019-05-29T02:52:12.524Z,101625.98
2019-05-29T02:54:42.290Z,101628.67
2019-05-29T02:57:12.259Z,101631.98
2019-05-29T02:59:42.042Z,101638.23
2019-05-29T03:02:11.851Z,101633.58
2019-05-29T03:04:41.594Z,101644.11
2019-05-29T03:07:11.547Z,101647.41
2019-05-29T03:09:41.419Z,101645.01
2019-05-29T03:12:11.178Z,101653.86
2019-05-29T03:14:40.925Z,101658.89
2019-05-29T03:17:10.714Z,101654.72
2019-05-29T03:19:40.450Z,101661.09
2019-05-29T03:22:10.282Z,101661.20
2019-05-29T03:24:39.961Z,101664.62
2019-05-29T03:27:09.706Z,101670.05
2019-05-29T03:29:39.543Z,101676.60
2019-05-29T03:32:14.091Z,101679.06
2019-05-29T03:34:46.125Z,101690.67
2019-05-29T03:37:12.490Z,101691.64
2019-05-29T03:39:42.461Z,101691.36
2019-05-29T03:42:12.291Z,101692.54
2019-05-29T03:44:42.207Z,101697.31
2019-05-29T03:47:11.994Z,101702.92
2019-05-29T03:49:41.732Z,101696.70
2019-05-29T03:52:12.454Z,101703.02
2019-05-29T03:54:42.198Z,101699.66
2019-05-29T03:57:11.912Z,101704.95
2019-05-29T03:59:41.662Z,101701.64
2019-05-29T04:02:11.565Z,101713.02
2019-05-29T04:04:41.314Z,101707.47
2019-05-29T04:07:11.065Z,101706.91
2019-05-29T04:09:40.905Z,101712.69
2019-05-29T04:12:10.947Z,101714.22
2019-05-29T04:14:40.819Z,101717.02
2019-05-29T04:17:13.325Z,101719.12
2019-05-29T04:19:44.501Z,101711.01
2019-05-29T04:22:17.356Z,101715.25
2019-05-29T04:24:48.384Z,101710.39
2019-05-29T04:27:21.354Z,101712.96
2019-05-29T04:29:51.482Z,101727.61
2019-05-29T04:32:21.308Z,101730.77
2019-05-29T04:34:51.175Z,101734.96
2019-05-29T04:37:21.152Z,101742.50
2019-05-29T04:39:50.933Z,101741.52
2019-05-29T04:42:20.733Z,101755.77
2019-05-29T04:44:50.632Z,101758.44
2019-05-29T04:47:20.402Z,101753.38
2019-05-29T04:49:50.135Z,101755.41
2019-05-29T04:52:19.865Z,101764.22
2019-05-29T04:54:49.601Z,101773.63
2019-05-29T04:57:19.416Z,101766.95
2019-05-29T04:59:49.328Z,101781.99
2019-05-29T05:02:19.107Z,101788.42
2019-05-29T05:04:48.829Z,101784.77
2019-05-29T05:07:18.569Z,101789.91
2019-05-29T05:09:48.304Z,101788.30
2019-05-29T05:12:18.213Z,101799.97
2019-05-29T05:14:48.055Z,101800.05
2019-05-29T05:17:26.136Z,101799.42
2019-05-29T05:19:49.353Z,101809.86
2019-05-29T05:22:19.136Z,101807.28
2019-05-29T05:24:49.504Z,101808.19
2019-05-29T05:27:19.301Z,101811.75
2019-05-29T05:29:49.038Z,101821.81
2019-05-29T05:32:18.841Z,101818.55
2019-05-29T05:34:48.578Z,101835.23
2019-05-29T05:37:18.378Z,101833.71
2019-05-29T05:39:48.121Z,101837.89
2019-05-29T05:42:18.009Z,101835.58
2019-05-29T05:44:47.737Z,101842.06
2019-05-29T05:47:17.547Z,101843.02
2019-05-29T05:49:47.313Z,101854.13
2019-05-29T05:52:17.035Z,101855.25
2019-05-29T05:54:46.804Z,101864.37
2019-05-29T05:57:16.515Z,101863.05
2019-05-29T05:59:46.335Z,101868.67
2019-05-29T06:02:16.262Z,101869.24
2019-05-29T06:04:46.022Z,101865.26
2019-05-29T06:07:15.814Z,101871.86
2019-05-29T06:09:45.622Z,101870.10
2019-05-29T06:12:15.378Z,101874.23
2019-05-29T06:14:45.126Z,101871.97
2019-05-29T06:17:14.937Z,101873.92
2019-05-29T06:19:44.744Z,101878.84
2019-05-29T06:22:14.443Z,101876.33
2019-05-29T06:24:44.184Z,101878.83
2019-05-29T06:27:13.937Z,101881.31
2019-05-29T06:29:43.787Z,101878.72
2019-05-29T06:32:13.635Z,101883.70
2019-05-29T06:34:43.883Z,101886.04
2019-05-29T06:37:13.854Z,101889.31
2019-05-29T06:39:43.902Z,101901.48
2019-05-29T06:42:13.803Z,101902.36
2019-05-29T06:44:44.979Z,101894.84
2019-05-29T06:47:15.010Z,101895.68
2019-05-29T06:49:44.778Z,101899.77
2019-05-29T06:52:16.229Z,101901.63
2019-05-29T06:54:45.970Z,101902.20
2019-05-29T06:57:15.839Z,101909.03
2019-05-29T06:59:45.642Z,101911.47
2019-05-29T07:02:15.780Z,101911.63
2019-05-29T07:04:46.561Z,101913.21
2019-05-29T07:07:16.463Z,101921.26
2019-05-29T07:09:47.174Z,101914.27
2019-05-29T07:12:17.005Z,101916.38
2019-05-29T07:14:46.895Z,101924.19
2019-05-29T07:17:16.661Z,101931.08
2019-05-29T07:19:58.151Z,101930.77
2019-05-29T07:22:17.933Z,101936.97
2019-05-29T07:24:47.750Z,101948.56
2019-05-29T07:27:17.574Z,101944.85
2019-05-29T07:29:47.446Z,101952.41
2019-05-29T07:32:18.037Z,101947.66
2019-05-29T07:35:02.309Z,101959.24
2019-05-29T07:37:19.457Z,101961.23
2019-05-29T07:39:49.393Z,101958.34
2019-05-29T07:42:19.269Z,101964.27
2019-05-29T07:44:49.032Z,101962.09
2019-05-29T07:47:18.886Z,101963.72
2019-05-29T07:49:50.176Z,101967.24
2019-05-29T07:52:20.242Z,101971.64
2019-05-29T07:54:50.262Z,101975.50
2019-05-29T07:57:20.167Z,101978.88
2019-05-29T07:59:49.875Z,101977.88
2019-05-29T08:02:19.743Z,101972.79
2019-05-29T08:04:49.866Z,101982.68
2019-05-29T08:07:20.133Z,101979.58
2019-05-29T08:09:50.016Z,101984.94
2019-05-29T08:12:20.079Z,101981.64
2019-05-29T08:14:50.265Z,101986.98
2019-05-29T08:17:20.318Z,101990.03
2019-05-29T08:20:05.470Z,101983.04
2019-05-29T08:22:33.748Z,101985.38
2019-05-29T08:24:53.237Z,101988.31
2019-05-29T08:27:22.992Z,101990.63
2019-05-29T08:29:52.755Z,101994.55
2019-05-29T08:32:22.652Z,101987.22
2019-05-29T08:34:52.505Z,102001.62
2019-05-29T08:37:22.344Z,101999.00
2019-05-29T08:39:52.097Z,101998.92
2019-05-29T08:42:23.771Z,101999.23
2019-05-29T08:44:53.438Z,101995.34
2019-05-29T08:47:23.287Z,101993.76
2019-05-29T08:49:54.598Z,102004.31
2019-05-29T08:52:24.604Z,102003.06
2019-05-29T08:54:54.369Z,102006.50
2019-05-29T08:57:24.178Z,102015.56
2019-05-29T08:59:53.905Z,102017.86
2019-05-29T09:02:23.783Z,102021.82
2019-05-29T09:04:54.878Z,102024.31
2019-05-29T09:07:24.941Z,102021.31
2019-05-29T09:09:54.778Z,102019.63
2019-05-29T09:12:24.501Z,102013.94
2019-05-29T09:14:54.307Z,102010.82
2019-05-29T09:17:24.328Z,102016.58
2019-05-29T09:19:54.224Z,102020.01
2019-05-29T09:22:23.968Z,102025.39
2019-05-29T09:24:53.851Z,102026.01
2019-05-29T09:27:23.789Z,102018.30
2019-05-29T09:29:53.606Z,102024.06
2019-05-29T09:32:47.922Z,102021.52
2019-05-29T09:34:54.809Z,102017.06
2019-05-29T09:37:24.641Z,102031.98
2019-05-29T09:39:54.484Z,102028.91
2019-05-29T09:42:25.450Z,102032.94
2019-05-29T09:44:55.454Z,102032.02
2019-05-29T09:47:26.389Z,102028.33
2019-05-29T09:49:56.493Z,102039.84
2019-05-29T09:52:30.264Z,102034.19
2019-05-29T09:54:58.232Z,102038.14
2019-05-29T09:57:28.215Z,102040.42
2019-05-29T09:59:59.798Z,102044.23
2019-05-29T10:02:29.565Z,102042.83
2019-05-29T10:05:00.548Z,102045.84
2019-05-29T10:07:31.022Z,102041.92
2019-05-29T10:10:02.998Z,102052.55
2019-05-29T10:12:32.598Z,102047.22
2019-05-29T10:15:02.805Z,102058.06
2019-05-29T10:17:32.782Z,102050.02
2019-05-29T10:20:03.299Z,102058.34
2019-05-29T10:22:33.337Z,102062.92
2019-05-29T10:25:03.731Z,102059.82
2019-05-29T10:27:33.565Z,102057.95
2019-05-29T10:30:03.845Z,102065.25
2019-05-29T10:32:33.718Z,102059.38
2019-05-29T10:35:03.948Z,102055.83
2019-05-29T10:37:33.720Z,102060.96
2019-05-29T10:40:05.248Z,102056.08
2019-05-29T10:42:35.058Z,102053.04
2019-05-29T10:45:07.880Z,102053.52
2019-05-29T10:47:37.705Z,102053.04
2019-05-29T10:50:11.235Z,102053.20
2019-05-29T10:52:41.168Z,102054.74
2019-05-29T10:55:13.529Z,102059.50
2019-05-29T10:57:44.747Z,102060.59
2019-05-29T11:00:15.218Z,102061.74
2019-05-29T11:02:46.118Z,102065.52
2019-05-29T11:05:16.561Z,102068.73
2019-05-29T11:07:47.587Z,102066.58
2019-05-29T11:10:17.563Z,102072.79
2019-05-29T11:12:48.404Z,102078.61
2019-05-29T11:15:21.778Z,102075.48
2019-05-29T11:17:51.391Z,102069.16
2019-05-29T11:20:23.100Z,102066.22
2019-05-29T11:22:53.683Z,102068.47
2019-05-29T11:25:27.588Z,102067.20
2019-05-29T11:27:56.565Z,102059.42
2019-05-29T11:30:26.825Z,102056.41
2019-05-29T11:32:57.570Z,102060.55
2019-05-29T11:35:28.062Z,102055.42
2019-05-29T11:37:58.867Z,102056.06
2019-05-29T11:40:28.995Z,102061.95
2019-05-29T11:42:59.234Z,102062.42
2019-05-29T11:45:29.220Z,102055.93
2019-05-29T11:48:01.488Z,102059.93
2019-05-29T11:50:30.722Z,102065.83
2019-05-29T11:53:00.560Z,102054.67
2019-05-29T11:55:30.437Z,102064.09
2019-05-29T11:58:00.219Z,102068.72
2019-05-29T12:00:30.479Z,102065.15
2019-05-29T12:03:01.703Z,102064.56
2019-05-29T12:05:31.579Z,102066.23
2019-05-29T12:08:01.889Z,102063.26
2019-05-29T12:10:31.875Z,102071.33
2019-05-29T12:13:01.871Z,102067.41
2019-05-29T12:15:31.629Z,102065.62
2019-05-29T12:18:20.072Z,102060.53
2019-05-29T12:20:33.083Z,102068.36
2019-05-29T12:23:25.545Z,102068.97
2019-05-29T12:25:34.473Z,102071.08
2019-05-29T12:28:05.009Z,102061.26
2019-05-29T12:30:35.170Z,102077.86
2019-05-29T12:33:05.884Z,102077.22
2019-05-29T12:35:35.719Z,102081.55
2019-05-29T12:38:05.802Z,102080.78
2019-05-29T12:40:35.749Z,102082.71
2019-05-29T12:43:05.708Z,102078.31
2019-05-29T12:45:35.615Z,102081.33
2019-05-29T12:48:12.348Z,102081.36
2019-05-29T12:50:37.316Z,102074.20
2019-05-29T12:53:07.481Z,102078.13
2019-05-29T12:55:37.344Z,102080.11
2019-05-29T12:58:07.242Z,102084.83
2019-05-29T13:00:37.111Z,102081.98
2019-05-29T13:03:07.112Z,102086.58
2019-05-29T13:05:36.885Z,102078.70
2019-05-29T13:08:06.760Z,102081.08
2019-05-29T13:10:36.580Z,102078.70
2019-05-29T13:13:10.759Z,102084.98
2019-05-29T13:15:38.037Z,102085.61
2019-05-29T13:18:10.158Z,102082.43
2019-05-29T13:20:39.874Z,102078.89
2019-05-29T13:23:09.791Z,102077.41
2019-05-29T13:25:39.792Z,102076.55
2019-05-29T13:28:09.670Z,102076.55
2019-05-29T13:30:39.567Z,102076.39
2019-05-29T13:33:09.550Z,102076.20
2019-05-29T13:35:39.478Z,102078.44
2019-05-29T13:38:09.449Z,102079.36
2019-05-29T13:40:39.478Z,102077.61
2019-05-29T13:43:14.907Z,102075.72
2019-05-29T13:45:41.034Z,102069.67
2019-05-29T13:48:10.759Z,102071.76
2019-05-29T13:50:40.551Z,102073.11
2019-05-29T13:53:10.597Z,102078.70
2019-05-29T13:55:40.350Z,102082.80
2019-05-29T13:58:10.335Z,102082.34
2019-05-29T14:00:40.219Z,102078.77
2019-05-29T14:03:10.071Z,102071.02
2019-05-29T14:05:40.229Z,102077.77
2019-05-29T14:08:10.288Z,102075.58
2019-05-29T14:10:40.125Z,102072.84
2019-05-29T14:13:09.976Z,102077.22
2019-05-29T14:15:40.047Z,102074.91
2019-05-29T14:18:09.901Z,102077.11
2019-05-29T14:20:39.750Z,102075.78
2019-05-29T14:23:09.759Z,102070.66
2019-05-29T14:25:39.657Z,102070.69
2019-05-29T14:28:09.633Z,102081.88
2019-05-29T14:30:39.791Z,102076.39
2019-05-29T14:33:13.009Z,102076.62
2019-05-29T14:35:41.281Z,102073.34
2019-05-29T14:38:14.796Z,102081.36
2019-05-29T14:40:42.553Z,102085.28
2019-05-29T14:43:15.434Z,102086.43
2019-05-29T14:45:44.152Z,102071.45
2019-05-29T14:48:14.066Z,102074.91
2019-05-29T14:50:45.002Z,102069.41
2019-05-29T14:53:15.021Z,102073.56
2019-05-29T14:55:44.927Z,102067.01
2019-05-29T14:58:14.851Z,102070.27
2019-05-29T15:00:44.605Z,102081.42
2019-05-29T15:03:14.453Z,102081.11
2019-05-29T15:05:44.396Z,102079.23
2019-05-29T15:08:14.337Z,102080.13
2019-05-29T15:10:44.298Z,102083.30
2019-05-29T15:13:15.378Z,102086.69
2019-05-29T15:15:45.748Z,102088.58
2019-05-29T15:18:18.827Z,102092.71
2019-05-29T15:20:47.046Z,102094.41
2019-05-29T15:23:17.023Z,102082.41
2019-05-29T15:25:46.848Z,102085.70
2019-05-29T15:28:17.987Z,102086.59
2019-05-29T15:30:47.975Z,102093.00
2019-05-29T15:33:17.851Z,102103.66
2019-05-29T15:35:47.624Z,102099.14
2019-05-29T15:38:17.435Z,102098.29
2019-05-29T15:40:47.254Z,102097.45
2019-05-29T15:43:17.331Z,102102.88
2019-05-29T15:45:47.368Z,102107.39
2019-05-29T15:48:17.541Z,102109.72
2019-05-29T15:50:47.468Z,102117.03
2019-05-29T15:53:17.415Z,102109.00
2019-05-29T15:55:47.147Z,102099.60
2019-05-29T15:58:18.033Z,102097.48
2019-05-29T16:00:48.269Z,102092.92
2019-05-29T16:03:18.280Z,102100.58
2019-05-29T16:05:48.143Z,102100.15
2019-05-29T16:08:18.394Z,102097.56
2019-05-29T16:10:48.311Z,102098.93
2019-05-29T16:13:19.085Z,102098.80
2019-05-29T16:15:48.967Z,102096.59
2019-05-29T16:18:26.608Z,102097.23
2019-05-29T16:20:50.351Z,102097.92
2019-05-29T16:23:32.322Z,102098.05
2019-05-29T16:25:51.637Z,102098.47
2019-05-29T16:28:21.619Z,102094.36
2019-05-29T16:30:51.637Z,102096.04
2019-05-29T16:33:21.400Z,102094.34
2019-05-29T16:35:51.312Z,102090.53
2019-05-29T16:38:21.851Z,102085.28
2019-05-29T16:40:51.717Z,102080.89
2019-05-29T16:43:22.412Z,102082.41
2019-05-29T16:45:52.662Z,102081.27
2019-05-29T16:48:22.935Z,102092.00
2019-05-29T16:50:53.754Z,102093.81
2019-05-29T16:53:23.619Z,102089.28
2019-05-29T16:55:54.433Z,102093.40
2019-05-29T16:58:24.593Z,102096.02
2019-05-29T17:00:54.451Z,102097.25
2019-05-29T17:03:24.273Z,102090.18
2019-05-29T17:05:54.098Z,102090.95
2019-05-29T17:08:24.611Z,102091.80
2019-05-29T17:10:54.499Z,102097.20
2019-05-29T17:13:24.774Z,102094.05
2019-05-29T17:15:54.810Z,102093.06
2019-05-29T17:18:25.079Z,102097.59
2019-05-29T17:20:55.101Z,102095.39
2019-05-29T17:23:25.141Z,102108.41
2019-05-29T17:26:09.590Z,102095.30
2019-05-29T17:28:28.231Z,102101.03
2019-05-29T17:31:02.038Z,102105.42
2019-05-29T17:33:29.574Z,102103.61
2019-05-29T17:35:59.427Z,102101.04
2019-05-29T17:38:29.287Z,102108.81
2019-05-29T17:40:59.197Z,102098.14
2019-05-29T17:43:29.046Z,102102.58
2019-05-29T17:45:58.866Z,102100.42
2019-05-29T17:48:28.616Z,102102.03
2019-05-29T17:50:59.377Z,102100.92
2019-05-29T17:53:29.305Z,102096.72
2019-05-29T17:55:59.138Z,102094.84
2019-05-29T17:58:29.064Z,102093.80
2019-05-29T18:00:59.030Z,102094.41
2019-05-29T18:03:28.927Z,102098.19
2019-05-29T18:05:58.690Z,102102.25
2019-05-29T18:08:28.609Z,102103.84
2019-05-29T18:10:58.438Z,102098.97
2019-05-29T18:13:29.715Z,102097.27
2019-05-29T18:15:59.696Z,102102.03
2019-05-29T18:18:29.559Z,102093.36
2019-05-29T18:20:59.318Z,102092.16
2019-05-29T18:23:29.169Z,102097.21
2019-05-29T18:25:58.992Z,102101.69
2019-05-29T18:28:28.709Z,102095.03
2019-05-29T18:30:58.651Z,102101.72
2019-05-29T18:33:28.957Z,102096.05
2019-05-29T18:35:58.855Z,102090.78
2019-05-29T18:38:28.893Z,102098.59
2019-05-29T18:40:58.810Z,102098.25
2019-05-29T18:43:28.793Z,102091.73
2019-05-29T18:45:58.633Z,102092.80
2019-05-29T18:48:29.516Z,102096.53
2019-05-29T18:51:02.712Z,102094.59
2019-05-29T18:53:33.118Z,102094.09
2019-05-29T18:56:03.044Z,102097.01
2019-05-29T18:58:32.806Z,102100.34
2019-05-29T19:01:02.628Z,102099.28
2019-05-29T19:03:33.101Z,102097.83
2019-05-29T19:06:03.054Z,102101.00
2019-05-29T19:08:33.038Z,102099.74
2019-05-29T19:11:02.839Z,102093.63
2019-05-29T19:13:33.499Z,102093.25
2019-05-29T19:16:03.527Z,102085.16
2019-05-29T19:18:33.421Z,102091.77
2019-05-29T19:21:03.378Z,102090.28
2019-05-29T19:23:33.303Z,102095.73
2019-05-29T19:26:03.181Z,102090.98
2019-05-29T19:28:33.064Z,102097.96
2019-05-29T19:31:02.942Z,102094.30
2019-05-29T19:33:33.553Z,102097.80
2019-05-29T19:36:03.620Z,102097.73
2019-05-29T19:38:34.190Z,102104.58
2019-05-29T19:41:04.311Z,102108.98
2019-05-29T19:43:35.501Z,102112.51
2019-05-29T19:46:05.944Z,102105.08
2019-05-29T19:48:36.513Z,102116.06
2019-05-29T19:51:06.800Z,102117.66
2019-05-29T19:53:36.675Z,102124.30
2019-05-29T19:56:06.580Z,102116.48
2019-05-29T19:58:36.484Z,102119.62
2019-05-29T20:01:06.608Z,102124.60
2019-05-29T20:03:36.766Z,102130.81
2019-05-29T20:06:06.861Z,102124.34
2019-05-29T20:08:39.464Z,102127.48
2019-05-29T20:11:08.542Z,102124.75
2019-05-29T20:13:38.410Z,102128.98
2019-05-29T20:16:08.378Z,102128.51
2019-05-29T20:18:38.543Z,102130.73
2019-05-29T20:21:08.799Z,102132.27
2019-05-29T20:23:38.900Z,102131.76
2019-05-29T20:26:08.970Z,102132.73
2019-05-29T20:28:38.891Z,102136.10
2019-05-29T20:31:11.892Z,102136.66
2019-05-29T20:33:40.597Z,102128.27
2019-05-29T20:36:10.562Z,102131.65
2019-05-29T20:38:41.370Z,102132.50
2019-05-29T20:41:11.333Z,102134.20
2019-05-29T20:43:41.849Z,102130.43
2019-05-29T20:46:12.016Z,102133.16
2019-05-29T20:48:42.663Z,102131.30
2019-05-29T20:51:12.868Z,102129.94
2019-05-29T20:53:42.718Z,102132.48
2019-05-29T20:56:12.587Z,102134.20
2019-05-29T20:58:42.647Z,102131.80
2019-05-29T21:01:12.708Z,102123.75
2019-05-29T21:03:42.706Z,102123.44
2019-05-29T21:06:12.518Z,102119.78
2019-05-29T21:08:43.371Z,102119.52
2019-05-29T21:11:13.739Z,102120.16
2019-05-29T21:13:43.948Z,102123.39
2019-05-29T21:16:13.866Z,102118.55
2019-05-29T21:18:44.162Z,102116.23
2019-05-29T21:21:14.039Z,102117.34
2019-05-29T21:23:44.689Z,102109.89
2019-05-29T21:26:14.457Z,102113.71
2019-05-29T21:28:49.861Z,102109.53
2019-05-29T21:31:15.943Z,102106.22
2019-05-29T21:33:49.222Z,102112.25
2019-05-29T21:36:17.365Z,102116.55
2019-05-29T21:38:47.273Z,102113.78
2019-05-29T21:41:17.135Z,102110.78
2019-05-29T21:43:47.106Z,102114.39
2019-05-29T21:46:16.830Z,102118.77
2019-05-29T21:48:47.482Z,102116.16
2019-05-29T21:51:17.330Z,102119.84
2019-05-29T21:53:47.582Z,102131.03
2019-05-29T21:56:17.550Z,102122.45
2019-05-29T21:58:59.956Z,102121.70
2019-05-29T22:01:19.063Z,102120.75
2019-05-29T22:03:49.017Z,102119.52
2019-05-29T22:06:18.838Z,102129.27
2019-05-29T22:08:48.810Z,102128.17
2019-05-29T22:11:18.800Z,102122.51
2019-05-29T22:13:48.764Z,102123.59
2019-05-29T22:16:18.652Z,102117.93
2019-05-29T22:18:48.541Z,102112.00
2019-05-29T22:21:18.269Z,102111.91
2019-05-29T22:23:48.031Z,102109.13
2019-05-29T22:26:17.861Z,102104.99
2019-05-29T22:28:47.634Z,102095.23
2019-05-29T22:31:17.488Z,102086.81
2019-05-29T22:33:47.379Z,102092.64
2019-05-29T22:36:17.244Z,102084.77
2019-05-29T22:38:47.118Z,102080.61
2019-05-29T22:41:16.969Z,102087.31
2019-05-29T22:43:46.704Z,102079.80
2019-05-29T22:46:16.471Z,102073.02
2019-05-29T22:48:46.381Z,102078.49
2019-05-29T22:51:16.186Z,102071.46
2019-05-29T22:53:46.083Z,102070.55
2019-05-29T22:56:15.903Z,102072.06
2019-05-29T22:58:45.819Z,102063.52
2019-05-29T23:01:15.817Z,102063.07
2019-05-29T23:03:45.712Z,102061.35
2019-05-29T23:06:15.622Z,102067.62
2019-05-29T23:08:45.446Z,102063.34
2019-05-29T23:11:15.280Z,102071.02
2019-05-29T23:13:45.046Z,102063.34
2019-05-29T23:16:14.928Z,102066.00
2019-05-29T23:18:44.697Z,102064.36
2019-05-29T23:21:14.438Z,102070.13
2019-05-29T23:23:44.222Z,102059.38
2019-05-29T23:26:14.123Z,102067.27
2019-05-29T23:28:43.969Z,102060.80
2019-05-29T23:31:13.906Z,102060.45
2019-05-29T23:33:43.716Z,102056.22
2019-05-29T23:36:13.580Z,102054.98
2019-05-29T23:38:43.468Z,102051.97
2019-05-29T23:41:13.269Z,102055.44
2019-05-29T23:43:43.197Z,102046.50
2019-05-29T23:46:13.003Z,102048.70
2019-05-29T23:48:42.759Z,102049.88
2019-05-29T23:51:19.860Z,102044.95
2019-05-29T23:53:49.755Z,102047.25
2019-05-29T23:56:19.518Z,102048.11
2019-05-29T23:58:49.349Z,102046.09
